createdAt,value
2023-05-12T00:00:48.615Z,2.90
2023-05-12T00:03:15.216Z,2.28
2023-05-12T00:05:41.731Z,2.00
2023-05-12T00:08:08.154Z,2.80
2023-05-12T00:10:35.700Z,3.67
2023-05-12T00:13:02.714Z,1.85
2023-05-12T00:15:29.218Z,1.55
2023-05-12T00:17:55.880Z,1.63
2023-05-12T00:20:22.604Z,4.38
2023-05-12T00:22:49.128Z,2.42
2023-05-12T00:25:15.653Z,2.03
2023-05-12T00:27:42.117Z,2.35
2023-05-12T00:30:09.272Z,2.20
2023-05-12T00:32:35.917Z,2.38
2023-05-12T00:35:02.671Z,3.38
2023-05-12T00:37:29.065Z,3.42
2023-05-12T00:39:55.505Z,2.30
2023-05-12T00:42:21.950Z,2.30
2023-05-12T00:44:48.460Z,2.92
2023-05-12T00:47:14.919Z,2.63
2023-05-12T00:49:44.082Z,2.00
2023-05-12T00:52:10.738Z,1.90
2023-05-12T00:54:38.471Z,2.38
2023-05-12T00:57:05.235Z,2.55
2023-05-12T00:59:31.760Z,2.67
2023-05-12T01:01:58.514Z,2.70
2023-05-12T01:04:25.202Z,2.33
2023-05-12T01:06:58.231Z,2.47
2023-05-12T01:09:24.732Z,2.92
2023-05-12T01:11:51.679Z,2.95
2023-05-12T01:14:18.099Z,2.42
2023-05-12T01:16:50.460Z,2.28
2023-05-12T01:19:46.081Z,1.98
2023-05-12T01:22:12.842Z,2.05
2023-05-12T01:24:46.581Z,1.77
2023-05-12T01:27:15.531Z,1.88
2023-05-12T01:29:43.427Z,1.67
2023-05-12T01:32:10.783Z,1.75
2023-05-12T01:34:37.234Z,1.92
2023-05-12T01:37:03.809Z,2.75
2023-05-12T01:39:30.284Z,1.85
2023-05-12T01:41:56.726Z,1.63
2023-05-12T01:44:23.260Z,3.22
2023-05-12T01:46:49.788Z,3.33
2023-05-12T01:49:18.168Z,2.22
2023-05-12T01:51:44.616Z,3.05
2023-05-12T01:54:11.119Z,3.80
2023-05-12T01:56:37.575Z,2.90
2023-05-12T01:59:04.098Z,2.65
2023-05-12T02:01:32.266Z,3.38
2023-05-12T02:03:59.359Z,2.20
2023-05-12T02:06:27.170Z,3.40
2023-05-12T02:08:53.578Z,3.53
2023-05-12T02:11:20.043Z,3.03
2023-05-12T02:13:46.679Z,3.10
2023-05-12T02:16:13.486Z,3.97
2023-05-12T02:18:40.109Z,2.33
2023-05-12T02:21:06.873Z,3.88
2023-05-12T02:23:33.319Z,3.40
2023-05-12T02:25:59.750Z,1.95
2023-05-12T02:28:26.254Z,3.17
2023-05-12T02:30:53.179Z,2.75
2023-05-12T02:33:23.323Z,2.70
2023-05-12T02:35:49.986Z,3.67
2023-05-12T02:38:16.675Z,3.90
2023-05-12T02:40:43.236Z,4.28
2023-05-12T02:43:09.660Z,3.00
2023-05-12T02:45:36.275Z,3.47
2023-05-12T02:48:03.012Z,2.05
2023-05-12T02:50:29.515Z,3.22
2023-05-12T02:52:56.159Z,1.90
2023-05-12T02:55:22.588Z,2.15
2023-05-12T02:57:49.189Z,1.50
2023-05-12T03:00:15.929Z,2.03
2023-05-12T03:02:43.118Z,2.58
2023-05-12T03:05:09.840Z,2.50
2023-05-12T03:07:36.255Z,1.42
2023-05-12T03:10:02.774Z,1.77
2023-05-12T03:12:29.689Z,2.55
2023-05-12T03:14:56.593Z,2.47
2023-05-12T03:17:23.584Z,2.05
2023-05-12T03:19:50.146Z,1.65
2023-05-12T03:22:16.813Z,1.58
2023-05-12T03:24:43.311Z,2.72
2023-05-12T03:27:09.851Z,3.45
2023-05-12T03:29:36.562Z,2.90
2023-05-12T03:32:03.056Z,1.30
2023-05-12T03:34:29.463Z,2.30
2023-05-12T03:36:55.862Z,1.90
2023-05-12T03:39:24.596Z,2.08
2023-05-12T03:41:50.993Z,2.30
2023-05-12T03:44:20.436Z,1.90
2023-05-12T03:46:47.015Z,1.55
2023-05-12T03:49:13.528Z,1.92
2023-05-12T03:51:39.942Z,2.20
2023-05-12T03:54:06.378Z,2.13
2023-05-12T03:56:32.836Z,2.60
2023-05-12T03:58:59.240Z,4.30
2023-05-12T04:01:25.690Z,2.22
2023-05-12T04:03:52.247Z,2.03
2023-05-12T04:06:18.811Z,2.00
2023-05-12T04:08:45.486Z,2.50
2023-05-12T04:11:11.972Z,2.65
2023-05-12T04:13:38.412Z,2.17
2023-05-12T04:16:05.580Z,2.78
2023-05-12T04:18:32.014Z,1.90
2023-05-12T04:20:58.453Z,2.53
2023-05-12T04:23:25.021Z,2.92
2023-05-12T04:25:51.439Z,2.28
2023-05-12T04:28:18.016Z,3.03
2023-05-12T04:30:44.483Z,2.78
2023-05-12T04:33:10.951Z,3.03
2023-05-12T04:35:37.438Z,2.58
2023-05-12T04:38:04.460Z,3.25
2023-05-12T04:40:33.391Z,3.08
2023-05-12T04:43:01.218Z,2.47
2023-05-12T04:45:27.608Z,5.25
2023-05-12T04:47:54.034Z,3.75
2023-05-12T04:50:20.430Z,3.53
2023-05-12T04:52:46.876Z,3.67
2023-05-12T04:55:13.374Z,3.95
2023-05-12T04:57:41.442Z,4.25
2023-05-12T05:00:09.149Z,4.03
2023-05-12T05:02:35.987Z,4.05
2023-05-12T05:05:02.659Z,4.30
2023-05-12T05:07:29.079Z,4.05
2023-05-12T05:09:55.519Z,3.55
2023-05-12T05:12:21.934Z,4.10
2023-05-12T05:14:48.422Z,4.45
2023-05-12T05:17:15.025Z,4.95
2023-05-12T05:19:54.798Z,5.15
2023-05-12T05:22:25.196Z,4.55
2023-05-12T05:24:51.965Z,4.43
2023-05-12T05:27:18.641Z,4.68
2023-05-12T05:29:45.076Z,3.97
2023-05-12T05:32:11.583Z,5.43
2023-05-12T05:34:38.308Z,6.15
2023-05-12T05:37:04.933Z,4.70
2023-05-12T05:39:31.633Z,5.60
2023-05-12T05:41:58.211Z,5.97
2023-05-12T05:44:25.223Z,9.07
2023-05-12T05:46:51.786Z,9.68
2023-05-12T05:49:18.570Z,8.77
2023-05-12T05:51:44.978Z,7.53
2023-05-12T05:54:12.166Z,14.02
2023-05-12T05:56:38.657Z,6.93
2023-05-12T05:59:05.506Z,6.60
2023-05-12T06:01:32.425Z,6.68
2023-05-12T06:03:59.206Z,6.18
2023-05-12T06:06:25.799Z,6.97
2023-05-12T06:08:52.293Z,7.20
2023-05-12T06:11:18.729Z,7.28
2023-05-12T06:13:45.180Z,6.63
2023-05-12T06:16:11.656Z,6.15
2023-05-12T06:18:38.639Z,9.80
2023-05-12T06:21:05.769Z,7.90
2023-05-12T06:23:32.666Z,8.75
2023-05-12T06:25:59.207Z,9.55
2023-05-12T06:28:25.683Z,7.55
2023-05-12T06:30:52.098Z,6.88
2023-05-12T06:33:18.556Z,7.65
2023-05-12T06:35:45.030Z,12.45
2023-05-12T06:38:11.454Z,6.75
2023-05-12T06:40:37.967Z,8.18
2023-05-12T06:43:04.698Z,9.13
2023-05-12T06:45:31.188Z,7.53
2023-05-12T06:47:57.865Z,8.43
2023-05-12T06:50:24.579Z,8.40
2023-05-12T06:52:51.239Z,7.72
2023-05-12T06:55:20.684Z,7.55
2023-05-12T06:57:55.489Z,9.38
2023-05-12T07:00:23.844Z,7.75
2023-05-12T07:02:50.576Z,7.95
2023-05-12T07:05:18.668Z,7.78
2023-05-12T07:07:45.642Z,7.28
2023-05-12T07:10:12.160Z,7.53
2023-05-12T07:12:39.282Z,8.73
2023-05-12T07:15:06.525Z,9.25
2023-05-12T07:17:32.995Z,8.15
2023-05-12T07:19:59.499Z,8.43
2023-05-12T07:22:26.506Z,7.38
2023-05-12T07:24:52.952Z,8.18
2023-05-12T07:27:19.398Z,7.00
2023-05-12T07:29:45.903Z,7.47
2023-05-12T07:32:12.403Z,9.30
2023-05-12T07:34:38.804Z,9.35
2023-05-12T07:37:06.438Z,6.75
2023-05-12T07:39:33.024Z,6.80
2023-05-12T07:41:59.532Z,7.50
2023-05-12T07:44:27.275Z,7.13
2023-05-12T07:46:54.377Z,7.80
2023-05-12T07:49:21.985Z,9.35
2023-05-12T07:51:48.421Z,7.28
2023-05-12T07:54:14.953Z,6.50
2023-05-12T07:56:41.421Z,8.20
2023-05-12T07:59:08.755Z,11.90
2023-05-12T08:01:35.181Z,8.23
2023-05-12T08:04:01.772Z,9.30
2023-05-12T08:06:28.282Z,7.70
2023-05-12T08:08:57.973Z,7.45
2023-05-12T08:11:25.111Z,6.07
2023-05-12T08:13:51.873Z,8.05
2023-05-12T08:16:18.421Z,8.75
2023-05-12T08:18:44.918Z,7.00
2023-05-12T08:21:11.366Z,6.78
2023-05-12T08:23:37.838Z,8.63
2023-05-12T08:26:04.719Z,6.82
2023-05-12T08:28:31.447Z,6.65
2023-05-12T08:30:59.842Z,6.88
2023-05-12T08:33:27.817Z,6.97
2023-05-12T08:35:54.257Z,7.00
2023-05-12T08:38:21.305Z,5.95
2023-05-12T08:41:01.477Z,6.47
2023-05-12T08:43:38.091Z,7.15
2023-05-12T08:46:05.421Z,5.15
2023-05-12T08:48:34.310Z,6.30
2023-05-12T08:51:02.974Z,7.18
2023-05-12T08:53:29.900Z,8.88
2023-05-12T08:57:09.582Z,9.85
2023-05-12T08:58:45.855Z,6.10
2023-05-12T09:01:12.784Z,8.45
2023-05-12T09:03:39.550Z,5.72
2023-05-12T09:06:06.884Z,10.82
2023-05-12T09:08:35.099Z,6.55
2023-05-12T09:11:02.550Z,6.85
2023-05-12T09:13:52.907Z,6.88
2023-05-12T09:16:27.316Z,4.75
2023-05-12T09:18:56.095Z,7.18
2023-05-12T09:21:23.389Z,6.20
2023-05-12T09:24:06.522Z,5.22
2023-05-12T09:26:46.632Z,7.22
2023-05-12T09:29:20.835Z,6.60
2023-05-12T09:31:55.393Z,5.47
2023-05-12T09:34:30.470Z,6.97
2023-05-12T09:36:58.524Z,6.40
2023-05-12T09:39:25.734Z,8.48
2023-05-12T09:41:52.824Z,4.95
2023-05-12T09:44:19.789Z,6.25
2023-05-12T09:46:46.721Z,5.13
2023-05-12T09:49:13.539Z,5.03
2023-05-12T09:51:40.280Z,5.78
2023-05-12T09:54:07.925Z,6.15
2023-05-12T09:56:37.770Z,7.82
2023-05-12T09:59:05.397Z,5.30
2023-05-12T10:01:32.236Z,3.83
2023-05-12T10:03:59.340Z,5.43
2023-05-12T10:06:28.601Z,6.75
2023-05-12T10:09:20.389Z,4.57
2023-05-12T10:11:53.469Z,4.57
2023-05-12T10:14:22.711Z,3.83
2023-05-12T10:16:50.001Z,8.82
2023-05-12T10:19:17.699Z,4.53
2023-05-12T10:21:47.743Z,5.20
2023-05-12T10:24:17.497Z,4.25
2023-05-12T10:26:44.735Z,3.58
2023-05-12T10:29:12.619Z,4.68
2023-05-12T10:31:39.643Z,5.00
2023-05-12T10:34:06.850Z,4.65
2023-05-12T10:36:46.460Z,4.00
2023-05-12T10:39:15.486Z,4.05
2023-05-12T10:41:42.780Z,3.58
2023-05-12T10:44:12.175Z,3.75
2023-05-12T10:46:38.769Z,6.00
2023-05-12T10:49:12.449Z,6.60
2023-05-12T10:51:45.103Z,9.60
2023-05-12T10:54:18.641Z,7.80
2023-05-12T10:56:45.451Z,5.30
2023-05-12T10:59:18.301Z,7.15
2023-05-12T11:02:01.839Z,3.38
2023-05-12T11:04:46.841Z,3.72
2023-05-12T11:07:16.699Z,6.70
2023-05-12T11:12:16.810Z,6.25
2023-05-12T11:14:45.663Z,4.75
2023-05-12T11:17:13.045Z,5.40
2023-05-12T11:19:40.253Z,3.85
2023-05-12T11:22:11.710Z,3.00
2023-05-12T11:24:40.786Z,4.57
2023-05-12T11:27:11.764Z,3.40
2023-05-12T11:29:42.166Z,2.70
2023-05-12T11:32:10.099Z,2.97
2023-05-12T11:34:36.704Z,2.47
2023-05-12T11:37:04.674Z,2.72
2023-05-12T11:39:32.425Z,2.45
2023-05-12T11:42:13.554Z,2.80
2023-05-12T11:44:50.493Z,3.22
2023-05-12T11:47:19.064Z,6.65
2023-05-12T11:49:53.084Z,3.47
2023-05-12T11:52:21.296Z,2.20
2023-05-12T11:54:48.358Z,2.40
2023-05-12T11:57:28.304Z,4.55
2023-05-12T12:00:09.018Z,3.30
2023-05-12T12:02:37.429Z,3.40
2023-05-12T12:05:05.404Z,3.25
2023-05-12T12:07:36.708Z,2.63
2023-05-12T12:10:17.037Z,2.97
2023-05-12T12:12:44.371Z,2.55
2023-05-12T12:15:11.603Z,4.15
2023-05-12T12:17:39.710Z,4.20
2023-05-12T12:20:07.864Z,3.15
2023-05-12T12:22:34.696Z,2.25
2023-05-12T12:25:01.860Z,2.47
2023-05-12T12:27:28.264Z,4.05
2023-05-12T12:29:54.734Z,2.40
2023-05-12T12:32:21.153Z,2.63
2023-05-12T12:34:49.066Z,2.70
2023-05-12T12:37:16.230Z,5.03
2023-05-12T12:39:42.785Z,5.35
2023-05-12T12:42:09.359Z,2.30
2023-05-12T12:44:35.771Z,3.50
2023-05-12T12:47:02.236Z,2.70
2023-05-12T12:49:28.734Z,2.58
2023-05-12T12:51:55.841Z,2.67
2023-05-12T12:54:22.726Z,3.85
2023-05-12T12:56:49.222Z,9.68
2023-05-12T12:59:15.700Z,9.73
2023-05-12T13:01:42.912Z,11.13
2023-05-12T13:04:09.477Z,8.82
2023-05-12T13:06:36.136Z,5.53
2023-05-12T13:09:03.952Z,6.45
2023-05-12T13:11:30.460Z,4.63
2023-05-12T13:13:56.867Z,6.95
2023-05-12T13:16:23.491Z,4.10
2023-05-12T13:18:49.974Z,6.75
2023-05-12T13:21:16.537Z,7.47
2023-05-12T13:23:42.990Z,6.93
2023-05-12T13:26:09.415Z,6.78
2023-05-12T13:28:35.838Z,4.50
2023-05-12T13:31:02.298Z,4.32
2023-05-12T13:33:29.139Z,5.80
2023-05-12T13:35:55.617Z,4.13
2023-05-12T13:38:22.439Z,6.47
2023-05-12T13:40:48.932Z,5.47
2023-05-12T13:43:15.354Z,4.15
2023-05-12T13:45:42.708Z,4.63
2023-05-12T13:48:09.251Z,4.53
2023-05-12T13:50:36.022Z,5.38
2023-05-12T13:53:02.472Z,3.42
2023-05-12T13:55:29.043Z,3.72
2023-05-12T13:57:55.475Z,4.30
2023-05-12T14:00:22.160Z,3.28
2023-05-12T14:02:48.844Z,2.78
2023-05-12T14:05:15.615Z,3.33
2023-05-12T14:07:42.669Z,5.03
2023-05-12T14:10:09.979Z,2.85
2023-05-12T14:12:37.136Z,3.65
2023-05-12T14:15:19.953Z,4.30
2023-05-12T14:17:50.601Z,4.45
2023-05-12T14:20:17.060Z,2.88
2023-05-12T14:22:43.502Z,3.13
2023-05-12T14:25:09.902Z,5.82
2023-05-12T14:27:36.430Z,3.50
2023-05-12T14:30:03.035Z,4.13
2023-05-12T14:32:29.660Z,3.97
2023-05-12T14:34:56.124Z,5.97
2023-05-12T14:37:22.672Z,4.30
2023-05-12T14:39:49.056Z,5.28
2023-05-12T14:42:15.644Z,4.68
2023-05-12T14:44:42.067Z,3.70
2023-05-12T14:47:09.243Z,3.10
2023-05-12T14:49:35.752Z,2.83
2023-05-12T14:52:02.787Z,2.63
2023-05-12T14:54:29.278Z,3.20
2023-05-12T14:56:56.639Z,3.22
2023-05-12T14:59:23.320Z,3.08
2023-05-12T15:01:49.985Z,3.05
2023-05-12T15:04:16.741Z,2.72
2023-05-12T15:06:43.187Z,3.97
2023-05-12T15:09:09.719Z,3.05
2023-05-12T15:11:36.969Z,3.20
2023-05-12T15:14:04.954Z,4.93
2023-05-12T15:16:32.907Z,5.30
2023-05-12T15:18:59.508Z,3.67
2023-05-12T15:21:26.138Z,5.90
2023-05-12T15:23:53.830Z,7.50
2023-05-12T15:26:32.713Z,9.85
2023-05-12T15:29:01.718Z,11.77
2023-05-12T15:31:29.506Z,15.40
2023-05-12T15:33:56.964Z,7.80
2023-05-12T15:36:23.671Z,14.88
2023-05-12T15:38:50.115Z,7.97
2023-05-12T15:41:16.723Z,8.93
2023-05-12T15:43:43.245Z,7.68
2023-05-12T15:46:10.851Z,11.40
2023-05-12T15:48:37.558Z,11.30
2023-05-12T15:51:04.248Z,11.40
2023-05-12T15:53:31.310Z,8.90
2023-05-12T15:56:01.879Z,13.45
2023-05-12T15:58:28.675Z,10.57
2023-05-12T16:00:55.668Z,11.93
2023-05-12T16:03:23.015Z,11.85
2023-05-12T16:05:49.923Z,13.23
2023-05-12T16:08:16.739Z,9.52
2023-05-12T16:10:43.224Z,10.57
2023-05-12T16:13:09.755Z,11.77
2023-05-12T16:15:36.326Z,7.32
2023-05-12T16:18:02.929Z,8.50
2023-05-12T16:20:29.851Z,10.80
2023-05-12T16:22:56.339Z,9.10
2023-05-12T16:25:23.202Z,6.55
2023-05-12T16:27:49.970Z,9.38
2023-05-12T16:30:19.387Z,8.40
2023-05-12T16:32:47.607Z,6.65
2023-05-12T16:35:14.259Z,10.43
2023-05-12T16:37:41.318Z,9.48
2023-05-12T16:40:09.419Z,7.95
2023-05-12T16:42:36.491Z,7.20
2023-05-12T16:45:03.133Z,11.60
2023-05-12T16:47:29.779Z,9.68
2023-05-12T16:49:58.098Z,6.95
2023-05-12T16:52:25.468Z,6.60
2023-05-12T16:54:53.114Z,7.30
2023-05-12T16:57:20.268Z,8.48
2023-05-12T16:59:48.471Z,5.32
2023-05-12T17:02:15.290Z,8.15
2023-05-12T17:04:41.999Z,6.97
2023-05-12T17:07:09.588Z,8.02
2023-05-12T17:09:36.132Z,7.20
2023-05-12T17:12:04.795Z,5.50
2023-05-12T17:14:31.378Z,6.82
2023-05-12T17:16:57.934Z,5.95
2023-05-12T17:19:24.626Z,6.63
2023-05-12T17:21:51.120Z,6.90
2023-05-12T17:24:17.851Z,6.38
2023-05-12T17:26:44.919Z,7.10
2023-05-12T17:29:11.702Z,7.03
2023-05-12T17:31:38.700Z,6.50
2023-05-12T17:34:05.289Z,6.28
2023-05-12T17:36:32.162Z,6.75
2023-05-12T17:38:58.618Z,5.82
2023-05-12T17:41:26.961Z,5.50
2023-05-12T17:43:54.155Z,10.30
2023-05-12T17:46:20.581Z,5.25
2023-05-12T17:48:47.472Z,5.80
2023-05-12T17:51:13.913Z,6.63
2023-05-12T17:53:40.357Z,6.18
2023-05-12T17:56:07.053Z,6.95
2023-05-12T17:58:33.694Z,10.00
2023-05-12T18:01:00.186Z,8.18
2023-05-12T18:03:26.769Z,7.30
2023-05-12T18:05:54.340Z,8.45
2023-05-12T18:08:21.541Z,4.75
2023-05-12T18:10:48.094Z,4.95
2023-05-12T18:13:15.532Z,5.60
2023-05-12T18:15:42.521Z,6.38
2023-05-12T18:18:10.161Z,5.32
2023-05-12T18:20:37.083Z,4.53
2023-05-12T18:23:03.506Z,6.40
2023-05-12T18:25:29.942Z,4.93
2023-05-12T18:27:56.416Z,6.90
2023-05-12T18:30:22.888Z,4.55
2023-05-12T18:32:49.617Z,6.25
2023-05-12T18:35:16.138Z,6.65
2023-05-12T18:37:42.814Z,5.75
2023-05-12T18:40:09.422Z,6.63
2023-05-12T18:42:36.120Z,4.70
2023-05-12T18:45:02.787Z,3.08
2023-05-12T18:47:29.292Z,4.97
2023-05-12T18:49:55.728Z,6.80
2023-05-12T18:52:22.243Z,5.53
2023-05-12T18:54:49.889Z,5.25
2023-05-12T18:57:16.750Z,5.10
2023-05-12T18:59:43.485Z,6.13
2023-05-12T19:02:10.231Z,5.07
2023-05-12T19:04:37.047Z,4.53
2023-05-12T19:07:03.930Z,5.65
2023-05-12T19:09:30.570Z,4.07
2023-05-12T19:11:57.037Z,5.60
2023-05-12T19:14:23.814Z,4.55
2023-05-12T19:16:50.415Z,6.88
2023-05-12T19:19:20.225Z,4.90
2023-05-12T19:21:46.690Z,4.55
2023-05-12T19:24:13.558Z,5.80
2023-05-12T19:26:39.995Z,8.27
2023-05-12T19:29:06.937Z,4.53
2023-05-12T19:31:34.295Z,5.65
2023-05-12T19:34:00.878Z,6.30
2023-05-12T19:36:29.070Z,7.18
2023-05-12T19:38:59.450Z,5.78
2023-05-12T19:41:30.031Z,4.22
2023-05-12T19:43:56.510Z,3.97
2023-05-12T19:46:23.618Z,4.07
2023-05-12T19:48:51.388Z,4.30
2023-05-12T19:51:17.989Z,5.13
2023-05-12T19:53:44.459Z,4.90
2023-05-12T19:56:11.063Z,5.07
2023-05-12T19:58:37.499Z,8.38
2023-05-12T20:01:03.987Z,9.85
2023-05-12T20:03:31.217Z,5.53
2023-05-12T20:05:58.606Z,4.63
2023-05-12T20:08:25.055Z,6.03
2023-05-12T20:10:51.458Z,6.70
2023-05-12T20:13:17.965Z,4.10
2023-05-12T20:15:44.497Z,5.32
2023-05-12T20:18:12.745Z,10.07
2023-05-12T20:20:39.196Z,6.60
2023-05-12T20:23:05.631Z,7.22
2023-05-12T20:25:33.141Z,5.43
2023-05-12T20:27:59.767Z,5.32
2023-05-12T20:30:26.791Z,5.18
2023-05-12T20:32:53.379Z,5.93
2023-05-12T20:35:20.569Z,7.20
2023-05-12T20:37:47.724Z,4.45
2023-05-12T20:40:14.338Z,5.25
2023-05-12T20:42:40.817Z,6.05
2023-05-12T20:45:07.910Z,3.78
2023-05-12T20:47:35.057Z,5.40
2023-05-12T20:50:05.530Z,6.63
2023-05-12T20:52:33.635Z,5.28
2023-05-12T20:55:00.207Z,5.22
2023-05-12T20:57:27.132Z,4.00
2023-05-12T20:59:56.730Z,5.53
2023-05-12T21:02:24.731Z,6.88
2023-05-12T21:04:51.698Z,3.35
2023-05-12T21:07:18.698Z,4.22
2023-05-12T21:09:45.801Z,4.10
2023-05-12T21:12:12.264Z,5.13
2023-05-12T21:14:43.556Z,4.75
2023-05-12T21:17:10.824Z,5.78
2023-05-12T21:19:39.177Z,5.70
2023-05-12T21:22:06.890Z,4.47
2023-05-12T21:24:33.652Z,5.43
2023-05-12T21:27:04.513Z,6.43
2023-05-12T21:29:32.524Z,5.10
2023-05-12T21:31:59.265Z,5.97
2023-05-12T21:34:25.944Z,4.68
2023-05-12T21:36:52.720Z,4.78
2023-05-12T21:39:19.185Z,5.38
2023-05-12T21:41:45.979Z,5.57
2023-05-12T21:44:12.768Z,5.78
2023-05-12T21:46:39.256Z,5.38
2023-05-12T21:49:05.908Z,3.47
2023-05-12T21:51:33.221Z,4.57
2023-05-12T21:54:00.640Z,4.97
2023-05-12T21:56:27.093Z,6.60
2023-05-12T21:58:53.653Z,4.47
2023-05-12T22:01:20.500Z,4.97
2023-05-12T22:03:47.135Z,5.75
2023-05-12T22:06:13.689Z,5.82
2023-05-12T22:08:40.236Z,4.50
2023-05-12T22:11:06.697Z,4.68
2023-05-12T22:13:33.142Z,3.72
2023-05-12T22:16:00.084Z,3.70
2023-05-12T22:18:26.654Z,4.65
2023-05-12T22:20:53.216Z,3.20
2023-05-12T22:23:19.741Z,7.65
2023-05-12T22:25:46.345Z,4.13
2023-05-12T22:28:12.762Z,5.15
2023-05-12T22:30:39.195Z,5.90
2023-05-12T22:33:06.190Z,4.82
2023-05-12T22:35:32.803Z,3.63
2023-05-12T22:37:59.258Z,4.60
2023-05-12T22:40:27.128Z,3.58
2023-05-12T22:42:53.632Z,4.22
2023-05-12T22:45:20.186Z,5.07
2023-05-12T22:47:46.823Z,4.20
2023-05-12T22:50:13.352Z,3.25
2023-05-12T22:52:39.781Z,4.63
2023-05-12T22:55:06.887Z,5.88
2023-05-12T22:59:59.744Z,5.30
2023-05-12T23:02:26.204Z,4.57
2023-05-12T23:04:52.686Z,5.78
2023-05-12T23:07:19.123Z,6.88
2023-05-12T23:09:45.621Z,6.03
2023-05-12T23:12:12.189Z,3.63
2023-05-12T23:14:38.620Z,3.80
2023-05-12T23:17:05.735Z,5.30
2023-05-12T23:19:32.437Z,4.35
2023-05-12T23:21:58.973Z,5.13
2023-05-12T23:24:25.512Z,3.38
2023-05-12T23:26:52.489Z,4.35
2023-05-12T23:29:18.997Z,4.13
2023-05-12T23:31:45.571Z,4.15
2023-05-12T23:34:12.455Z,6.00
2023-05-12T23:36:38.888Z,5.18
2023-05-12T23:39:05.507Z,5.60
2023-05-12T23:41:33.918Z,5.60
2023-05-12T23:44:00.414Z,6.82
2023-05-12T23:46:27.007Z,4.78
2023-05-12T23:48:56.163Z,4.18
2023-05-12T23:51:23.402Z,3.90
2023-05-12T23:53:50.020Z,3.45
2023-05-12T23:56:16.663Z,3.90
2023-05-12T23:58:43.160Z,6.43
